De Soto, KS

6:33 PM CDT on May 27, 2015 (GMT -0500)
Cedar Ridge | | Change Station
CLOSE
Current Station
Personal Weather Station
Location: De Soto, KS
Elevation: 886 ft
Nearby Weather Stations

Elev 886 ft 38.97 °N, 94.99 °W | Updated 71 days ago

Clear
Clear
79 °F
Feels Like 79 °F
N
5
Wind Variable Wind from East
Gusts mph

Today
High -- | Low -- °F
--% Chance of Precip.
Yesterday
High -- | Low -- °F
Precip. -- in
5:58 AM 8:35 PM
Waxing Gibbous, 71% visible
Pressure 30.05 in
Visibility 10.0 miles
Clouds Clear
Dew Point 56 °F
Humidity 45%
Rainfall in
Snow Depth Not available.
UV 3 out of 12
Pollen 8.20 out of 12
Air Quality Not available.
Flu Activity No Activity
METAR KIXD 272253Z 13006KT 10SM CLR 27/11 A3007 RMK AO2 SLP175 T02670111

More Conditions Fewer Conditions

Pressure 30.05 in
Visibility 10.0 miles
Clouds Clear
Dew Point 56 °F
Humidity 45%
Rainfall in
Snow Depth Not available.
UV 3 out of 12
Pollen 8.20 out of 12
Air Quality Not available.
Flu Activity No Activity
METAR KIXD 272253Z 13006KT 10SM CLR 27/11 A3007 RMK AO2 SLP175 T02670111

More Conditions Fewer Conditions

10-Day Weather Forecast

Almanac

Astronomy

May. 27, 2015 Rise Set
Actual Time
Civil Twilight
Nautical Twilight
Astronomical Twilight
Moon
Length of Visible Light
Length of Day
Tomorrow will be .
, % of the Moon is Illuminated

Today's Extremes

State Highs State Lows

Community

WunderPhotos

Upload Photos

1,824,821 photos uploaded!

WunderBlogs® & News

Nearby

Air Quality

  Air Quality AQ Index Pollutant
Not available.

Snow Depth

Station Depth Elevation

Earthquake Activity

City Distance Mag. Time & Date
Minimum magnitude displayed is 2.5.

Coastal Water Temperatures

Place Temperature

Stations

Nearby Weather Stations

Station Location Temp. Windchill Dew Point Humidity Wind Precip. Elev Updated Type